Current Conditions
Overcast
Conditions



Pressure
1026.92 (mb) - 30.32 (inHG)
Visibility

0.0 (miles) - 0.0 (km)
Temperature
0  °C
Temperature
0  °C
Dewpoint
100  %
 Humidity
Wind Speed
5  mph
4  kts
8  km/h
2.2  m/s
Wind Direction
N
45°
E
90°
135°
S
180°
225°
W
270°
315°
 70°

East North
East
Airport Data
EGGD
Bristol Airport
Metar :EGGD 020020Z AUTO 07004KT 0050 FZFG VV/// M00/M00 Q1027
Fri 2nd December 00:20 am
Raw Metar Info
Raw METAR is the most common format in the world for the transmission of observational weather data. It is highly standardized through the International Civil Aviation Organization (ICAO), which allows it to be understood throughout most of the world.
API Info
Data Provided by
https://www.checkwx.com/weather/EGGD

Aviation Weather providing METAR, TAF, AIRMET, SIGMET and OUTLOOK Weather Reports
© Info
CSS/SVG/PHP scripts were developed by weather34 for use in the weather34 template © 2015-2022

Guide Info provided by Metar-Wikipedia